MENU

POPULAR MANGA

Loading...
Mob Psycho 100 CHAPTER LIST
  • Mob Psycho 100

    Alternative : モブサイコ100 (Japanese); 灵能百分百 (Chinese); One Hundred Mob Psycho; OneHundred MobPsycho; Mob 100 (English)
  • Author(s) : One,
  • Status : Ongoing
  • Last updated : Dec-04-2017 21:20:02 PM
  • TransGroup :
  • View : 2,307,927
  • Genres : Action, Comedy, Psychological, School life, Shounen, Slice of life, Supernatural,
  • Rating :
  •   Mangakakalot.com rate : 4.87/ 5 - 82 votes

Mob Psycho 100 summary:

Kageyama Shigeo (a.k.a. "Mob") is a 8th grader with psychic abilities. He could bend spoons and lift objects with his mind from a young age, but he slowly began to withhold from using his abilities in public due to the negative attention he kept receiving. Now, the only thing he wants is to become friends with a girl in his class, Tsubomi. With his psychic "mentor" (who has no psychic powers), he continues his daily life, attempting to realize his purpose in life.
Maybe coming in the next issue
Mob Psycho 100 chapter 110
Mob Psycho 100 chapter 111
Chapter name View Time uploaded
Chapter 109 30,773 12-04 21:11
Chapter 101.1 19,534 10-07 16:52
Chapter 100.17 8,043 12-04 21:20
Chapter 100.16 5,033 12-04 21:18
Chapter 100.15 4,486 12-04 21:17
Chapter 100.14 4,256 12-04 21:15
Chapter 100.13 10,093 12-04 21:13
Chapter 100.12 7,841 12-04 21:13
Chapter 100.11 7,493 12-04 21:13
Chapter 100.10 6,085 12-04 21:13
Chapter 100.9 8,480 10-07 16:48
Chapter 100.8 7,388 10-07 16:47
Chapter 100.7 13,037 08-25 15:57
Chapter 100.6 19,611 07-31 01:47
Chapter 100.5 17,712 07-18 06:47
Chapter 100.4 18,356 07-03 04:50
Chapter 100.2 15,870 06-20 11:06
Chapter 100.1 24,536 06-09 15:34
Chapter 100 : Ch.99.4 21,010 05-31 04:13
Chapter 99.9 : Ch.99.3 12,954 05-30 21:23
Chapter 99.7 : Ch 99.1 Mob 16,474 05-08 21:16
Chapter 99.6 : Ch. 98.12 14,194 04-17 02:15
Chapter 99.5 : c.98k 13,747 04-07 04:45
Chapter 99.4 : Ch.98.10 13,654 04-01 01:15
Chapter 99.3 : ch98.9 13,178 03-26 21:22
Chapter 99.2 : Ch.98.8 12,128 03-26 21:22
Chapter 99.1 : Ch.98.7 14,356 03-06 01:50
Chapter 99 : Ch.98.6 17,654 02-26 23:20
Chapter 98.9 : c.98 Omakes 13,161 02-20 02:47
Chapter 98.8 : Ch.98.5 13,371 02-13 23:33
Chapter 98.7 : Ch.98.4 12,384 02-10 11:17
Chapter 98.6 : Ch.98.3 12,699 02-06 01:17
Chapter 98.5 : Ch.98.2 12,929 02-06 01:17
Chapter 98.3 : Ch.97.13 14,012 01-08 22:16
Chapter 98.2 : Ch.97.12 14,056 12-26 00:31
Chapter 98.1 : Ch.97.11 14,177 12-19 01:32
Chapter 98 : Ch.97.10 22,441 12-18 18:31
Chapter 97.9 12,866 12-03 00:52
Chapter 97.8 12,161 11-28 11:37
Chapter 97.7 9,961 11-19 13:52
Chapter 97.6 9,072 11-05 20:37
Chapter 97.5 8,896 10-28 22:42
Chapter 97.4 8,934 10-22 19:07
Chapter 97.3 : [Nerieru-Scans] 8,885 10-22 18:27
Chapter 97.2 8,691 10-08 09:11
Chapter 97.1 : Dimple is 9,777 10-02 11:11
Chapter 96.7 7,550 10-01 17:31
Chapter 96.6 7,631 09-10 06:06
Chapter 96.5 7,776 09-02 03:37
Chapter 96.4 7,835 08-27 15:49
Chapter 96.3 7,825 08-04 23:43
Chapter 96.2 7,758 07-28 22:43
Chapter 96.1 : Peace 8,181 07-22 02:18
Chapter 96 7,692 07-22 02:18
Chapter 95.4 7,514 07-14 19:53
Chapter 95.3 7,262 07-12 14:25
Chapter 95.2 7,889 07-02 21:48
Chapter 95.1 7,884 06-25 10:52
Chapter 94.2 8,256 06-04 16:31
Chapter 94.1 : Carried Away 8,949 05-22 23:38
Chapter 93.3 8,233 05-22 23:38
Chapter 93.2 8,519 05-22 23:38
Chapter 93.1 9,052 04-24 00:02
Chapter 92.3 8,627 04-09 13:36
Chapter 92.2 9,068 04-01 00:34
Chapter 91.6 : 90-11 20,259 02-22 03:39
Chapter 91.3 13,101 02-20 02:18
Chapter 91.2 13,551 02-12 01:25
Chapter 91.1 : 90-12 16,728 01-30 07:06
Chapter 91 : 90-10 16,027 01-22 06:12
Chapter 90.9 v2 12,540 01-22 06:12
Chapter 90.9 11,759 01-20 09:29
Chapter 90.8 12,344 01-20 09:29
Chapter 90.7 10,277 01-20 09:29
Chapter 90.6 10,594 01-20 09:29
Chapter 90.5 10,483 01-20 09:29
Chapter 90.4 10,130 01-20 09:29
Chapter 90.3 10,606 01-20 09:29
Chapter 90.2 10,916 01-20 09:29
Chapter 90 12,630 01-20 09:29
Chapter 89.4 9,310 01-20 09:29
Chapter 89.3 8,863 01-20 09:29
Chapter 89.2 9,259 01-20 09:29
Chapter 89.1 9,257 01-20 09:29
Chapter 88.3 9,097 01-20 09:29
Chapter 88.2 9,389 01-20 09:29
Chapter 88 9,566 01-20 09:29
Chapter 87.4 8,925 01-20 09:29
Chapter 87.3 8,810 01-20 09:29
Chapter 87.2 8,682 01-20 09:29
Chapter 87.1 9,178 01-20 09:29
Chapter 86.2 9,033 01-20 09:29
Chapter 86.1 9,050 01-20 09:29
Chapter 85.2 10,440 01-20 09:29
Chapter 84.2 9,433 01-20 09:29
Chapter 84.1 8,897 01-20 09:29
Chapter 83.2 9,026 01-20 09:29
Chapter 83.1 9,287 01-20 09:29
Chapter 82.2 9,182 01-20 09:29
Chapter 82 : Clash 9,989 01-20 09:29
Chapter 81.2 8,947 01-20 09:29
Chapter 81.1 9,386 01-20 09:29
Chapter 80.5 8,727 01-20 09:29
Chapter 80 : Inner Conflict 10,268 01-20 09:29
Chapter 79.2 9,210 01-20 09:29
Chapter 79.1 9,748 01-20 09:29
Chapter 78.5 : Read Online 8,745 01-20 09:29
Chapter 78.2 : Read Online 9,024 01-20 09:29
Chapter 78 : Gathering 9,550 01-20 09:29
Chapter 77.6 8,267 01-20 09:29
Chapter 77.5 8,877 01-20 09:29
Chapter 77 : Show It 9,793 01-20 09:29
Chapter 76 : Fire 9,580 01-20 09:29
Chapter 75 : Even So 9,371 01-20 09:29
Chapter 74.4 : Anthology 2 c.6 8,282 01-20 09:29
Chapter 74 : Forward 10,037 01-20 09:29
Chapter 73.5 : It's There 9,250 01-20 09:29
Chapter 73 : True Character 9,676 01-20 09:29
Chapter 72 : Finishing Off 9,555 01-20 09:29
Chapter 71.5 : Impulsive 9,478 01-20 09:29
Chapter 71 : Overhyped 9,606 01-20 09:29
Chapter 70 : The Lonely Whitey 9,579 01-20 09:29
Chapter 69 : He Doesn't Care 9,712 01-20 09:29
Chapter 68 9,942 01-20 09:29
Chapter 67.5 10,677 01-20 09:29
Chapter 67.3 : Rightness (3) 10,643 01-20 09:29
Chapter 67.2 : Rightness (2) 10,114 01-20 09:29
Chapter 67.1 : Rightness (1) 10,067 01-20 09:29
Chapter 66 : Voice 10,108 01-20 09:29
Chapter 65.5 9,152 01-20 09:29
Chapter 65.2 9,294 01-20 09:29
Chapter 65.1 : Friction 10,165 01-20 09:29
Chapter 65 10,331 01-20 09:29
Chapter 64.2 9,503 01-20 09:29
Chapter 64.1 : World 9,699 01-20 09:29
Chapter 63.3 9,575 01-20 09:29
Chapter 63.2 : Last Resort (2) 9,755 01-20 09:29
Chapter 63.1 : Last Resort 9,624 01-20 09:29
Chapter 62 : Morphing 9,753 01-20 09:29
Chapter 61.2 9,568 01-20 09:29
Chapter 61.1 : Evil Spirit 9,793 01-20 09:29
Chapter 60.5 9,139 01-20 09:29
Chapter 60 : True Identity 9,855 01-20 09:29
Chapter 59 : Big Mouth 9,282 01-20 09:29
Chapter 58.5 8,997 01-20 09:29
Chapter 58 : Creeping Danger 10,114 01-20 09:29
Chapter 57 : Roots 10,132 01-20 09:29
Chapter 56 : Solo Mission 10,072 01-20 09:29
Chapter 55 : Don't Know 10,456 01-20 09:29
Chapter 53 : Urban Legend 11,165 01-20 09:29
Chapter 52.5 10,301 01-20 09:29
Chapter 51.5 11,122 01-20 09:29
Chapter 50 : No Changes 11,957 01-20 09:29
Chapter 49 : Putting an End 9,532 01-20 09:29
Chapter 48 : Overwhelming 8,147 01-20 09:29
Chapter 47 : Rental 7,770 01-20 09:29
Chapter 46 : Master 7,918 01-20 09:29
Chapter 45 : Leader 6,079 01-20 09:29
Chapter 44 : Respect 5,708 01-20 09:29
Chapter 43 : Evil Aura 5,858 01-20 09:29
Chapter 42 : Phone Call 5,574 01-20 09:29
Chapter 41 : Who 5,309 01-20 09:29
Chapter 40 : Pyrokinetic 5,598 01-20 09:29
Chapter 39 : The Awakened 5,356 01-20 09:29
Chapter 37 : Team 5,297 01-20 09:29
Chapter 36 : Ways of Usage 5,017 01-20 09:29
Chapter 35 : Up Up 5,346 01-20 09:29
Chapter 34 : Claw 5,771 01-20 09:29
Chapter 33 : Ura vs Ura 5,864 01-20 09:29
Chapter 32 : Will to Destroy 5,176 01-20 09:29
Chapter 31 : Mature 5,174 01-20 09:29
Chapter 30 : Brotherly Love 5,528 01-20 09:29
Chapter 28 : Off-Tune 4,879 01-20 09:29
Chapter 27 : Discord 4,922 01-20 09:29
Chapter 26 : In High Spirits 5,205 01-20 09:29
Chapter 25 : O X Relationship 5,505 01-20 09:29
Chapter 24 : Hated 5,500 01-20 09:29
Chapter 22 : Awakening Lab 5,733 01-20 09:29
Chapter 20 : Student Council 5,773 01-20 09:29
Chapter 19 : Conclusion 5,845 01-20 09:29
Chapter 18 : Unidentifiable 5,851 01-20 09:29
Chapter 17.1 : The Fake Pot 5,889 01-20 09:29
Chapter 16 : Ochimusha 5,868 01-20 09:29
Chapter 14 : Same Kind 6,052 01-20 09:29
Chapter 11 : Idiot-Only Event 5,778 01-20 09:28
Chapter 10 : The Gifted One 5,937 01-20 09:28
Chapter 8 : Break Down 6,742 01-20 09:28
Chapter 7 : Sheeple 6,660 01-20 09:28
Chapter 6 : The Invitation 6,510 01-20 09:28
Chapter 4 : For Oneself 7,341 01-20 09:28
Chapter 2 : A Naive Question 11,693 01-20 09:28
Loading...